Time;durP1;ratioP1;P1;durP2;ratioP2;P2;SDS_P1;SDS_P2;PMS_P1;PMS_P2;Temp;Humidity;BMP_temperature;BMP_pressure;BME280_temperature;BME280_humidity;BME280_pressure;Samples;Min_cycle;Max_cycle;Signal;HPM_P1;HPM_P2
2021/08/15 00:00:38;;;;;;;9.13;7.60;;;20.80;99.90;;;;;;5036337;28;20223;-63
2021/08/15 00:03:04;;;;;;;13.40;7.13;;;20.80;99.90;;;;;;5054174;28;20178;-66
2021/08/15 00:05:29;;;;;;;9.93;7.83;;;20.80;99.90;;;;;;5061156;28;20426;-63
2021/08/15 00:07:55;;;;;;;8.20;7.43;;;20.80;99.90;;;;;;5073666;28;20377;-66
2021/08/15 00:10:21;;;;;;;8.10;7.30;;;20.80;99.90;;;;;;5074173;28;20177;-62
2021/08/15 00:12:47;;;;;;;8.47;7.13;;;20.70;99.90;;;;;;5074119;28;20260;-66
2021/08/15 00:15:14;;;;;;;9.40;8.40;;;20.70;99.90;;;;;;5073990;28;20451;-62
2021/08/15 00:17:41;;;;;;;8.27;6.63;;;20.70;99.90;;;;;;5073715;28;20408;-64
2021/08/15 00:20:11;;;;;;;8.83;7.57;;;20.70;99.90;;;;;;5067727;28;20451;-65
2021/08/15 00:22:41;;;;;;;8.70;7.80;;;20.60;99.90;;;;;;5054024;28;20407;-63
2021/08/15 00:25:08;;;;;;;10.00;7.13;;;20.70;99.90;;;;;;5054090;28;20426;-62
2021/08/15 00:27:35;;;;;;;9.33;7.70;;;20.60;99.90;;;;;;5053480;28;20387;-65
2021/08/15 00:30:01;;;;;;;9.90;8.67;;;20.60;99.90;;;;;;5053651;28;20439;-62
2021/08/15 00:32:26;;;;;;;9.93;7.33;;;20.60;99.90;;;;;;5053580;28;20410;-62
2021/08/15 00:34:52;;;;;;;8.30;7.50;;;20.50;99.90;;;;;;5059204;28;20206;-63
2021/08/15 00:37:17;;;;;;;11.27;8.80;;;20.50;99.90;;;;;;5073349;28;20264;-64
2021/08/15 00:39:44;;;;;;;9.80;8.77;;;20.40;99.90;;;;;;5073542;28;20286;-65
2021/08/15 00:42:10;;;;;;;9.40;7.80;;;20.40;99.90;;;;;;5063473;28;20420;-62
2021/08/15 00:44:36;;;;;;;9.53;8.50;;;20.40;99.90;;;;;;5053453;28;20177;-65
2021/08/15 00:47:02;;;;;;;9.53;8.57;;;20.40;99.90;;;;;;5053274;28;20216;-62
2021/08/15 00:49:28;;;;;;;8.63;7.80;;;20.30;99.90;;;;;;5053234;28;20462;-63
2021/08/15 00:51:54;;;;;;;8.70;7.83;;;20.40;99.90;;;;;;5053540;28;20396;-62
2021/08/15 00:54:20;;;;;;;8.47;6.80;;;20.40;99.90;;;;;;5053455;28;20239;-66
2021/08/15 00:56:53;;;;;;;9.53;8.47;;;20.30;99.90;;;;;;5053030;28;20830;-61
2021/08/15 00:59:19;;;;;;;8.97;8.03;;;20.30;99.90;;;;;;5053406;28;20511;-62
2021/08/15 01:01:45;;;;;;;10.43;8.13;;;20.30;99.90;;;;;;5053374;28;20432;-65
2021/08/15 01:04:10;;;;;;;8.30;7.50;;;20.20;99.90;;;;;;5053439;28;20952;-64
2021/08/15 01:06:38;;;;;;;8.60;7.73;;;20.20;99.90;;;;;;5053103;28;20225;-65
2021/08/15 01:09:05;;;;;;;15.37;8.63;;;20.20;99.90;;;;;;5052933;28;20185;-64
2021/08/15 01:11:33;;;;;;;11.10;8.70;;;20.10;99.90;;;;;;5052613;28;20431;-65
2021/08/15 01:14:05;;;;;;;9.67;8.07;;;20.10;99.90;;;;;;5053148;28;20448;-63
2021/08/15 01:16:32;;;;;;;11.57;9.00;;;20.10;99.90;;;;;;5052905;28;20506;-66
2021/08/15 01:18:58;;;;;;;11.80;7.93;;;20.10;99.90;;;;;;5053170;28;20466;-62
2021/08/15 01:21:24;;;;;;;12.07;8.87;;;20.00;99.90;;;;;;5056114;28;20444;-64
2021/08/15 01:23:49;;;;;;;12.70;8.60;;;20.00;99.90;;;;;;5071664;28;20181;-62
2021/08/15 01:26:19;;;;;;;11.57;9.10;;;20.00;99.90;;;;;;5073883;28;20267;-62
2021/08/15 01:28:45;;;;;;;8.77;7.90;;;19.90;99.90;;;;;;5072678;28;20578;-62
2021/08/15 01:31:12;;;;;;;8.70;7.60;;;19.90;99.90;;;;;;5057949;28;20905;-67
2021/08/15 01:33:39;;;;;;;11.47;8.20;;;19.90;99.90;;;;;;5051852;28;20771;-62
2021/08/15 01:36:06;;;;;;;8.23;7.33;;;19.90;99.90;;;;;;5052973;28;20452;-65
2021/08/15 01:38:35;;;;;;;9.73;8.73;;;19.90;99.90;;;;;;5052451;28;20420;-65
2021/08/15 01:41:01;;;;;;;9.93;8.60;;;19.80;99.90;;;;;;5053070;28;20778;-66
2021/08/15 01:43:28;;;;;;;8.87;8.07;;;19.80;99.90;;;;;;5052963;28;20402;-65
2021/08/15 01:45:54;;;;;;;8.83;7.77;;;19.80;99.90;;;;;;5067372;28;20455;-63
2021/08/15 01:48:21;;;;;;;9.20;8.23;;;19.80;99.90;;;;;;5072337;28;20976;-62
2021/08/15 01:50:47;;;;;;;11.50;8.10;;;19.70;99.90;;;;;;5072921;28;20531;-61
2021/08/15 01:53:16;;;;;;;11.20;8.83;;;19.70;99.90;;;;;;5072758;28;20421;-66
2021/08/15 01:55:43;;;;;;;9.40;8.40;;;19.70;99.90;;;;;;5072627;28;21016;-62
2021/08/15 01:58:13;;;;;;;8.70;7.77;;;19.60;99.90;;;;;;5072438;28;20799;-64
2021/08/15 02:00:40;;;;;;;10.30;8.87;;;19.60;99.90;;;;;;5058145;28;20460;-62
2021/08/15 02:03:07;;;;;;;12.20;9.33;;;19.60;99.90;;;;;;5051581;28;20917;-64
2021/08/15 02:05:33;;;;;;;10.43;9.43;;;19.60;99.90;;;;;;5052563;28;20820;-61
2021/08/15 02:08:00;;;;;;;9.53;8.13;;;19.60;99.90;;;;;;5058059;28;20506;-66
2021/08/15 02:10:27;;;;;;;9.87;8.50;;;19.50;99.90;;;;;;5071365;28;20184;-64
2021/08/15 02:12:54;;;;;;;10.90;8.93;;;19.50;99.90;;;;;;5072723;28;20449;-66
2021/08/15 02:15:20;;;;;;;10.03;9.03;;;19.40;99.90;;;;;;5072657;28;20446;-63
2021/08/15 02:17:47;;;;;;;8.73;7.93;;;19.40;99.90;;;;;;5072072;28;20543;-65
2021/08/15 02:20:15;;;;;;;12.60;9.90;;;19.40;99.90;;;;;;5072541;28;20885;-62
2021/08/15 02:22:41;;;;;;;12.53;9.90;;;19.40;99.90;;;;;;5069685;28;20419;-64
2021/08/15 02:25:11;;;;;;;11.47;8.37;;;19.40;99.90;;;;;;5056063;28;20438;-62
2021/08/15 02:27:38;;;;;;;9.40;8.33;;;19.30;99.90;;;;;;5055718;28;20504;-61
2021/08/15 02:30:05;;;;;;;11.17;9.03;;;19.30;99.90;;;;;;5056117;28;20835;-66
2021/08/15 02:32:31;;;;;;;10.90;8.90;;;19.30;99.90;;;;;;5055698;28;21027;-62
2021/08/15 02:34:57;;;;;;;10.23;9.17;;;19.30;99.90;;;;;;5055787;28;20486;-64
2021/08/15 02:37:23;;;;;;;10.07;8.53;;;19.30;99.90;;;;;;5068552;28;21004;-62
2021/08/15 02:39:50;;;;;;;9.97;9.07;;;19.30;99.90;;;;;;5075821;28;20185;-64
2021/08/15 02:42:15;;;;;;;10.87;9.20;;;19.30;99.90;;;;;;5075728;28;20464;-62
2021/08/15 02:44:42;;;;;;;9.37;8.10;;;19.30;99.90;;;;;;5075956;28;20399;-65
2021/08/15 02:47:09;;;;;;;9.53;8.33;;;19.30;99.90;;;;;;5075245;28;20682;-61
2021/08/15 02:49:36;;;;;;;9.43;8.30;;;19.20;99.90;;;;;;5075587;28;20427;-65
2021/08/15 02:52:02;;;;;;;9.50;8.50;;;19.20;99.90;;;;;;5062004;28;20415;-61
2021/08/15 02:54:27;;;;;;;8.77;7.83;;;19.20;99.90;;;;;;5055747;28;20424;-62
2021/08/15 02:56:53;;;;;;;11.47;9.27;;;19.20;99.90;;;;;;5055253;28;20240;-61
2021/08/15 02:59:19;;;;;;;10.47;8.90;;;19.20;99.90;;;;;;5058335;28;20196;-64
2021/08/15 03:01:44;;;;;;;9.60;8.70;;;19.10;99.90;;;;;;5075594;28;20579;-62
2021/08/15 03:04:10;;;;;;;9.77;8.67;;;19.10;99.90;;;;;;5075497;28;20208;-64
2021/08/15 03:06:35;;;;;;;10.20;8.93;;;19.10;99.90;;;;;;5075131;28;20172;-62
2021/08/15 03:09:01;;;;;;;11.57;10.37;;;19.10;99.90;;;;;;5075273;28;20207;-62
2021/08/15 03:11:27;;;;;;;12.10;9.50;;;19.00;99.90;;;;;;5075348;28;20183;-64
2021/08/15 03:13:52;;;;;;;11.50;10.30;;;19.00;99.90;;;;;;5073265;28;20187;-63
2021/08/15 03:16:18;;;;;;;12.60;10.23;;;19.00;99.90;;;;;;5055007;28;20544;-63
2021/08/15 03:18:43;;;;;;;12.97;9.43;;;19.00;99.90;;;;;;5054616;28;20182;-60
2021/08/15 03:21:09;;;;;;;10.50;9.40;;;19.00;99.90;;;;;;5055102;28;20231;-64
2021/08/15 03:23:35;;;;;;;11.07;9.90;;;19.00;99.90;;;;;;5055248;28;20187;-62
2021/08/15 03:26:00;;;;;;;12.77;9.90;;;19.00;99.90;;;;;;5055102;28;20177;-65
2021/08/15 03:28:26;;;;;;;11.10;9.43;;;19.00;99.90;;;;;;5062344;28;20238;-61
2021/08/15 03:30:51;;;;;;;10.50;9.43;;;18.90;99.90;;;;;;5074659;28;20177;-64
2021/08/15 03:33:17;;;;;;;10.43;9.33;;;18.90;99.90;;;;;;5074038;28;20662;-61
2021/08/15 03:35:43;;;;;;;14.47;9.30;;;18.90;99.90;;;;;;5074783;28;20196;-63
2021/08/15 03:38:08;;;;;;;9.83;8.57;;;18.80;99.90;;;;;;5074369;28;20192;-63
2021/08/15 03:40:34;;;;;;;9.57;8.67;;;18.80;99.90;;;;;;5074615;28;20230;-64
2021/08/15 03:42:59;;;;;;;10.37;8.70;;;18.80;99.90;;;;;;5058197;28;20557;-64
2021/08/15 03:45:25;;;;;;;10.53;8.50;;;18.80;99.90;;;;;;5054661;28;20188;-63
2021/08/15 03:47:51;;;;;;;10.80;8.97;;;18.80;99.90;;;;;;5053924;28;20173;-62
2021/08/15 03:50:17;;;;;;;11.33;10.13;;;18.70;99.90;;;;;;5054614;28;20204;-62
2021/08/15 03:52:43;;;;;;;12.20;10.20;;;18.70;99.90;;;;;;5054739;28;20402;-66
2021/08/15 03:55:11;;;;;;;10.90;8.63;;;18.60;99.90;;;;;;5053273;28;20195;-61
2021/08/15 03:57:41;;;;;;;11.00;9.93;;;18.70;99.90;;;;;;5053886;28;20204;-62
2021/08/15 04:00:07;;;;;;;12.30;9.03;;;18.60;99.90;;;;;;5054320;28;20436;-62
2021/08/15 04:02:33;;;;;;;17.90;9.70;;;18.70;99.90;;;;;;5054598;28;20497;-64
2021/08/15 04:04:59;;;;;;;12.00;10.20;;;18.60;99.90;;;;;;5054243;28;20499;-61
2021/08/15 04:07:25;;;;;;;13.30;9.80;;;18.60;99.90;;;;;;5053930;28;20419;-60
2021/08/15 04:09:51;;;;;;;10.70;9.60;;;18.60;99.90;;;;;;5055234;28;20452;-65
2021/08/15 04:12:17;;;;;;;10.47;9.20;;;18.60;99.90;;;;;;5074154;28;20178;-59
2021/08/15 04:14:43;;;;;;;10.47;9.20;;;18.60;99.90;;;;;;5073742;28;20177;-63
2021/08/15 04:17:08;;;;;;;11.77;9.50;;;18.50;99.90;;;;;;5073681;28;20761;-61
2021/08/15 04:19:34;;;;;;;11.60;9.50;;;18.50;99.90;;;;;;5073766;28;20183;-64
2021/08/15 04:21:59;;;;;;;10.20;9.17;;;18.40;99.90;;;;;;5074092;28;20169;-61
2021/08/15 04:24:25;;;;;;;12.53;9.87;;;18.40;99.90;;;;;;5073572;28;20167;-65
2021/08/15 04:26:51;;;;;;;11.50;9.60;;;18.40;99.90;;;;;;5073504;28;20174;-64
2021/08/15 04:29:17;;;;;;;11.10;10.00;;;18.40;99.90;;;;;;5073658;28;20197;-64
2021/08/15 04:31:43;;;;;;;13.33;10.73;;;18.40;99.90;;;;;;5074305;28;20204;-64
2021/08/15 04:34:09;;;;;;;10.67;9.57;;;18.40;99.90;;;;;;5073597;28;20517;-64
2021/08/15 04:36:35;;;;;;;14.10;11.47;;;18.50;99.90;;;;;;5073291;28;20446;-62
2021/08/15 04:39:02;;;;;;;10.57;9.17;;;18.50;99.90;;;;;;5073682;28;20893;-64
2021/08/15 04:41:27;;;;;;;13.67;10.57;;;18.60;99.90;;;;;;5054604;28;20450;-62
2021/08/15 04:43:53;;;;;;;11.80;9.80;;;18.60;99.90;;;;;;5052786;28;20489;-61
2021/08/15 04:46:19;;;;;;;21.13;10.33;;;18.60;99.90;;;;;;5055750;28;20183;-64
2021/08/15 04:48:44;;;;;;;10.50;9.50;;;18.70;99.90;;;;;;5072937;28;20299;-64
2021/08/15 04:51:10;;;;;;;14.33;10.80;;;18.80;99.90;;;;;;5073644;28;20261;-66
2021/08/15 04:53:35;;;;;;;11.60;9.90;;;18.90;99.90;;;;;;5073511;28;20172;-62
2021/08/15 04:56:03;;;;;;;11.40;9.57;;;19.00;99.90;;;;;;5073334;28;20246;-64
2021/08/15 04:58:29;;;;;;;10.83;9.73;;;19.20;99.90;;;;;;5072832;28;20683;-61
2021/08/15 05:00:55;;;;;;;11.63;9.43;;;19.30;99.90;;;;;;5071703;28;20464;-65
2021/08/15 05:03:20;;;;;;;10.13;9.00;;;19.50;99.90;;;;;;5053296;28;20392;-62
2021/08/15 05:05:46;;;;;;;9.60;8.50;;;19.50;99.90;;;;;;5053392;28;20699;-65
2021/08/15 05:08:12;;;;;;;10.20;9.10;;;19.80;99.90;;;;;;5052745;28;20197;-64
2021/08/15 05:10:39;;;;;;;9.90;8.47;;;20.10;99.90;;;;;;5053324;28;20735;-62
2021/08/15 05:13:05;;;;;;;8.50;7.10;;;20.30;99.90;;;;;;5053303;28;20690;-64
2021/08/15 05:15:31;;;;;;;8.40;7.60;;;20.40;99.90;;;;;;5053199;28;20464;-63
2021/08/15 05:17:56;;;;;;;9.43;8.00;;;20.40;99.90;;;;;;5052814;28;20187;-64
2021/08/15 05:20:22;;;;;;;9.33;7.90;;;20.40;99.90;;;;;;5053223;28;20174;-62
2021/08/15 05:22:48;;;;;;;9.43;8.13;;;20.40;99.90;;;;;;5059274;28;20172;-64
2021/08/15 05:25:13;;;;;;;11.03;8.23;;;20.50;99.90;;;;;;5073033;28;20176;-64
2021/08/15 05:27:39;;;;;;;9.27;7.73;;;20.50;99.90;;;;;;5071129;28;20643;-65
2021/08/15 05:30:05;;;;;;;9.73;8.63;;;20.60;99.90;;;;;;5072949;28;20544;-65
2021/08/15 05:32:31;;;;;;;11.53;7.40;;;20.80;99.90;;;;;;5072994;28;20193;-63
2021/08/15 05:34:56;;;;;;;7.97;7.20;;;20.90;99.90;;;;;;5072872;28;20817;-61
2021/08/15 05:37:23;;;;;;;8.90;8.00;;;21.00;99.90;;;;;;5072272;28;20635;-62
2021/08/15 05:39:48;;;;;;;8.90;7.77;;;21.10;99.90;;;;;;5072962;28;20704;-62
2021/08/15 05:42:14;;;;;;;7.53;6.50;;;21.20;99.90;;;;;;5072831;28;20505;-62
2021/08/15 05:44:40;;;;;;;9.93;8.93;;;21.30;99.90;;;;;;5073093;28;20208;-62
2021/08/15 05:47:08;;;;;;;9.43;8.53;;;21.40;99.90;;;;;;5072396;28;20464;-61
2021/08/15 05:49:33;;;;;;;10.03;7.73;;;21.50;99.90;;;;;;5072795;28;20755;-66
2021/08/15 05:51:59;;;;;;;9.17;7.47;;;21.50;99.90;;;;;;5071236;28;20440;-61
2021/08/15 05:54:25;;;;;;;9.63;8.63;;;21.60;99.90;;;;;;5072906;28;20162;-64
2021/08/15 05:56:50;;;;;;;9.73;7.20;;;21.70;99.90;;;;;;5075041;28;20197;-62
2021/08/15 05:59:16;;;;;;;10.90;8.30;;;21.90;99.90;;;;;;5076720;28;20238;-66
2021/08/15 06:01:42;;;;;;;10.40;8.63;;;22.00;99.90;;;;;;5076597;28;20575;-62
2021/08/15 06:04:07;;;;;;;9.43;8.50;;;22.10;99.90;;;;;;5076598;28;20169;-64
2021/08/15 06:06:33;;;;;;;9.17;8.10;;;22.20;99.90;;;;;;5076008;28;20172;-65
2021/08/15 06:08:58;;;;;;;11.03;8.10;;;22.30;99.90;;;;;;5076196;28;20249;-65
2021/08/15 06:11:24;;;;;;;9.60;8.60;;;22.40;99.90;;;;;;5076373;28;20537;-65
2021/08/15 06:13:51;;;;;;;8.57;7.73;;;22.40;99.90;;;;;;5076517;28;20185;-65
2021/08/15 06:16:18;;;;;;;8.60;6.97;;;22.40;99.90;;;;;;5076209;28;20247;-65
2021/08/15 06:18:44;;;;;;;9.00;8.10;;;22.40;99.90;;;;;;5075928;28;20458;-62
2021/08/15 06:21:09;;;;;;;9.07;8.17;;;22.50;99.90;;;;;;5069889;28;20420;-65
2021/08/15 06:23:35;;;;;;;10.30;7.30;;;22.50;99.90;;;;;;5056082;28;20199;-62
2021/08/15 06:26:01;;;;;;;7.90;7.20;;;22.50;99.90;;;;;;5055977;28;20660;-65
2021/08/15 06:28:27;;;;;;;9.03;7.70;;;22.60;99.90;;;;;;5055717;28;20339;-60
2021/08/15 06:30:52;;;;;;;10.30;9.00;;;22.70;99.90;;;;;;5055925;28;20439;-63
2021/08/15 06:33:18;;;;;;;8.90;8.00;;;22.80;99.90;;;;;;5055912;28;20182;-61
2021/08/15 06:35:44;;;;;;;10.10;8.50;;;22.90;99.90;;;;;;5060041;28;20283;-62
2021/08/15 06:38:09;;;;;;;9.57;7.70;;;22.90;99.90;;;;;;5075400;28;20583;-62
2021/08/15 06:40:35;;;;;;;10.00;8.97;;;23.10;99.90;;;;;;5075745;28;20180;-64
2021/08/15 06:43:05;;;;;;;12.60;8.87;;;23.20;99.90;;;;;;5075898;28;20196;-66
2021/08/15 06:45:31;;;;;;;10.30;8.27;;;23.30;99.90;;;;;;5075725;28;20227;-64
2021/08/15 06:47:56;;;;;;;8.80;7.90;;;23.20;99.90;;;;;;5075265;28;20484;-65
2021/08/15 06:50:22;;;;;;;9.77;8.23;;;23.30;99.90;;;;;;5071865;28;20512;-61
2021/08/15 06:52:47;;;;;;;8.63;7.77;;;23.40;99.90;;;;;;5055616;28;20270;-67
2021/08/15 06:55:13;;;;;;;9.30;8.37;;;23.50;99.90;;;;;;5055384;28;20691;-61
2021/08/15 06:57:39;;;;;;;10.67;8.53;;;23.70;99.90;;;;;;5055172;28;20196;-61
2021/08/15 07:00:06;;;;;;;8.83;8.00;;;23.80;99.90;;;;;;5055365;28;20766;-62
2021/08/15 07:02:47;;;;;;;8.87;7.87;;;23.80;99.90;;;;;;5055586;28;20243;-64
2021/08/15 07:05:14;;;;;;;8.87;7.97;;;23.90;99.90;;;;;;5055228;28;20404;-62
2021/08/15 07:07:40;;;;;;;8.93;8.03;;;23.90;99.90;;;;;;5053678;28;20419;-65
2021/08/15 07:10:06;;;;;;;10.00;8.67;;;24.00;99.90;;;;;;5058291;28;20439;-63
2021/08/15 07:12:32;;;;;;;8.40;7.60;;;24.10;99.90;;;;;;5075046;28;20184;-63
2021/08/15 07:14:58;;;;;;;7.67;6.87;;;24.20;99.90;;;;;;5075388;28;20411;-63
2021/08/15 07:17:23;;;;;;;7.53;6.77;;;24.40;99.90;;;;;;5074751;28;20176;-66
2021/08/15 07:19:49;;;;;;;8.77;7.87;;;24.50;99.90;;;;;;5075090;28;20295;-64
2021/08/15 07:22:15;;;;;;;11.00;7.97;;;24.70;99.90;;;;;;5075560;28;20180;-66
2021/08/15 07:24:41;;;;;;;8.80;7.73;;;24.80;99.90;;;;;;5072839;28;20196;-64
2021/08/15 07:27:06;;;;;;;9.50;8.60;;;24.90;99.90;;;;;;5054762;28;20259;-62
2021/08/15 07:29:32;;;;;;;8.63;7.30;;;25.10;99.90;;;;;;5054862;28;20204;-66
2021/08/15 07:31:58;;;;;;;8.93;8.03;;;25.30;99.90;;;;;;5054804;28;20406;-61
2021/08/15 07:34:23;;;;;;;9.73;8.60;;;25.70;99.90;;;;;;5054911;28;20642;-66
2021/08/15 07:36:49;;;;;;;9.83;8.80;;;26.20;99.90;;;;;;5054510;28;20267;-61
2021/08/15 07:39:15;;;;;;;9.20;8.20;;;27.10;99.90;;;;;;5063023;28;20773;-65
2021/08/15 07:41:41;;;;;;;8.33;7.50;;;28.10;99.90;;;;;;5074944;28;20177;-64
2021/08/15 07:44:07;;;;;;;9.70;8.53;;;29.10;99.90;;;;;;5074758;28;20258;-66
2021/08/15 07:46:32;;;;;;;9.30;8.33;;;30.20;99.90;;;;;;5069844;28;20489;-62
2021/08/15 07:48:58;;;;;;;8.83;8.00;;;31.10;99.10;;;;;;5054459;28;20605;-64
2021/08/15 07:51:25;;;;;;;9.23;8.43;;;32.10;97.20;;;;;;5054694;28;20632;-66
2021/08/15 07:53:51;;;;;;;9.47;8.77;;;33.10;95.00;;;;;;5054704;28;20190;-66
2021/08/15 07:56:17;;;;;;;9.20;8.40;;;33.50;92.80;;;;;;5054519;28;20456;-63
2021/08/15 07:58:42;;;;;;;8.40;7.70;;;33.90;92.10;;;;;;5053898;28;20435;-63
2021/08/15 08:01:08;;;;;;;9.60;8.63;;;34.40;90.80;;;;;;5057262;28;20431;-66
2021/08/15 08:03:34;;;;;;;8.07;7.37;;;34.80;90.10;;;;;;5074381;28;20196;-65
2021/08/15 08:06:00;;;;;;;8.80;7.90;;;35.00;90.10;;;;;;5072170;28;20258;-67
2021/08/15 08:08:26;;;;;;;8.60;7.87;;;35.50;87.00;;;;;;5053897;28;20205;-63
2021/08/15 08:10:55;;;;;;;9.27;8.53;;;36.00;84.40;;;;;;5054375;28;20416;-63
2021/08/15 08:13:22;;;;;;;8.70;8.10;;;36.30;81.40;;;;;;5054117;28;20395;-63
2021/08/15 08:15:48;;;;;;;7.50;7.00;;;36.30;80.60;;;;;;5053995;28;20463;-66
2021/08/15 08:18:14;;;;;;;9.70;9.00;;;36.40;80.90;;;;;;5053420;28;20973;-63
2021/08/15 08:20:40;;;;;;;8.27;7.70;;;37.00;79.60;;;;;;5054453;28;20420;-62
2021/08/15 08:23:09;;;;;;;9.47;8.70;;;37.90;77.90;;;;;;5073878;28;20215;-63
2021/08/15 08:25:35;;;;;;;8.73;8.13;;;38.60;74.10;;;;;;5073890;28;20403;-63
2021/08/15 08:28:01;;;;;;;8.90;8.10;;;39.30;71.90;;;;;;5073290;28;20403;-64
2021/08/15 08:30:26;;;;;;;8.60;7.77;;;39.30;70.60;;;;;;5073705;28;20180;-63
2021/08/15 08:32:52;;;;;;;9.47;8.50;;;39.20;69.70;;;;;;5073475;28;20623;-64
2021/08/15 08:35:18;;;;;;;8.63;8.03;;;39.20;69.10;;;;;;5072757;28;20258;-65
2021/08/15 08:37:45;;;;;;;8.57;7.90;;;39.20;67.20;;;;;;5073096;28;20176;-64
2021/08/15 08:40:12;;;;;;;8.00;7.27;;;39.30;66.50;;;;;;5073749;28;20184;-62
2021/08/15 08:42:37;;;;;;;8.83;8.03;;;39.70;65.20;;;;;;5059834;28;20507;-66
2021/08/15 08:45:04;;;;;;;8.50;7.80;;;40.10;64.40;;;;;;5053562;28;20510;-61
2021/08/15 08:47:33;;;;;;;8.57;8.00;;;40.10;64.20;;;;;;5053141;28;20200;-66
2021/08/15 08:49:59;;;;;;;9.50;8.77;;;40.10;64.60;;;;;;5053201;28;20543;-63
2021/08/15 08:52:29;;;;;;;9.33;8.47;;;40.10;63.40;;;;;;5064968;28;20508;-64
2021/08/15 08:54:59;;;;;;;9.00;8.30;;;40.20;63.40;;;;;;5073737;28;20439;-63
2021/08/15 08:57:25;;;;;;;8.57;7.80;;;40.50;63.20;;;;;;5073019;28;20457;-64
2021/08/15 08:59:51;;;;;;;8.53;7.93;;;40.60;62.10;;;;;;5069591;28;20460;-66
2021/08/15 09:02:17;;;;;;;9.50;8.80;;;40.60;62.20;;;;;;5053240;28;20440;-63
2021/08/15 09:04:43;;;;;;;8.20;7.60;;;40.80;61.70;;;;;;5053435;28;20440;-66
2021/08/15 09:07:14;;;;;;;7.97;7.37;;;40.70;60.00;;;;;;5053051;28;20211;-62
2021/08/15 09:09:50;;;;;;;8.13;7.53;;;40.70;60.30;;;;;;5053192;28;20285;-66
2021/08/15 09:12:15;;;;;;;8.20;7.67;;;40.50;60.10;;;;;;5053280;28;20422;-65
2021/08/15 09:14:41;;;;;;;7.50;7.00;;;40.80;60.60;;;;;;5057371;28;20506;-66
2021/08/15 09:17:08;;;;;;;8.47;7.77;;;40.70;59.70;;;;;;5072733;28;20173;-61
2021/08/15 09:19:47;;;;;;;8.20;7.60;;;40.20;60.50;;;;;;5073223;28;20223;-65
2021/08/15 09:22:13;;;;;;;8.20;7.60;;;40.30;59.60;;;;;;5073249;28;20430;-64
2021/08/15 09:25:10;;;;;;;9.20;8.40;;;40.30;60.00;;;;;;5073113;28;20422;-63
2021/08/15 09:27:56;;;;;;;8.60;8.03;;;40.90;59.00;;;;;;5072861;28;20566;-64
2021/08/15 09:30:28;;;;;;;8.73;8.13;;;41.30;58.30;;;;;;5061442;28;20438;-62
2021/08/15 09:32:57;;;;;;;8.43;7.83;;;41.70;57.80;;;;;;5072704;28;20426;-66
2021/08/15 09:35:29;;;;;;;8.50;7.90;;;42.00;58.10;;;;;;5077189;28;20434;-62
2021/08/15 09:38:11;;;;;;;9.20;8.50;;;41.80;57.70;;;;;;5076621;28;20429;-63
2021/08/15 09:40:36;;;;;;;8.50;7.90;;;41.50;57.40;;;;;;5076968;28;20411;-66
2021/08/15 09:43:05;;;;;;;8.00;7.43;;;41.40;58.60;;;;;;5076855;28;21019;-64
2021/08/15 09:45:37;;;;;;;8.47;7.97;;;41.80;58.20;;;;;;5076355;28;20218;-62
2021/08/15 09:48:28;;;;;;;9.07;8.47;;;42.10;57.50;;;;;;5076579;28;20445;-68
2021/08/15 09:51:24;;;;;;;10.40;9.60;;;42.10;57.10;;;;;;5070942;28;20464;-66
2021/08/15 09:53:50;;;;;;;8.70;8.20;;;42.30;57.40;;;;;;5075866;28;20417;-62
2021/08/15 09:56:29;;;;;;;9.00;8.50;;;42.60;57.10;;;;;;5077194;28;20406;-63
2021/08/15 09:59:14;;;;;;;8.60;8.10;;;42.90;55.00;;;;;;5076074;28;20195;-62
2021/08/15 10:01:47;;;;;;;9.40;8.80;;;42.40;55.40;;;;;;5070671;28;20506;-65
2021/08/15 10:04:14;;;;;;;8.80;8.30;;;42.50;56.20;;;;;;5056688;28;20442;-65
2021/08/15 10:06:42;;;;;;;8.83;8.23;;;42.70;55.80;;;;;;5056136;28;20454;-61
2021/08/15 10:09:08;;;;;;;9.70;9.00;;;43.10;55.40;;;;;;5056347;28;20949;-64
2021/08/15 10:11:35;;;;;;;8.30;7.80;;;43.30;55.20;;;;;;5056671;28;20426;-66
2021/08/15 10:14:05;;;;;;;8.70;8.10;;;43.20;54.80;;;;;;5056484;28;20272;-66
2021/08/15 10:16:35;;;;;;;9.57;8.77;;;43.00;56.00;;;;;;5056110;28;20472;-65
2021/08/15 10:19:07;;;;;;;8.60;8.00;;;42.70;56.00;;;;;;5056142;28;20431;-62
2021/08/15 10:21:42;;;;;;;9.00;8.40;;;42.50;56.00;;;;;;5056638;28;20460;-65
2021/08/15 10:24:11;;;;;;;9.30;8.70;;;42.40;55.60;;;;;;5056676;28;20406;-64
2021/08/15 10:26:45;;;;;;;8.97;8.17;;;42.10;56.00;;;;;;5055714;28;20483;-66
2021/08/15 10:29:36;;;;;;;8.43;7.83;;;41.90;56.70;;;;;;5055896;28;20424;-66
2021/08/15 10:32:19;;;;;;;8.90;8.27;;;41.40;56.50;;;;;;5075480;28;20423;-63
2021/08/15 10:35:04;;;;;;;7.57;7.07;;;40.50;56.80;;;;;;5075914;28;20940;-62
2021/08/15 10:37:34;;;;;;;9.10;8.30;;;39.40;58.10;;;;;;5075488;28;20407;-65
2021/08/15 10:40:03;;;;;;;7.27;6.73;;;38.40;59.60;;;;;;5075671;28;20450;-63
2021/08/15 10:42:37;;;;;;;7.80;7.10;;;37.80;60.80;;;;;;5075587;28;20412;-66
2021/08/15 10:45:08;;;;;;;8.60;7.80;;;37.00;63.30;;;;;;5069900;28;20510;-64
2021/08/15 10:47:35;;;;;;;7.97;7.27;;;36.50;63.80;;;;;;5055462;28;20411;-64
2021/08/15 10:50:03;;;;;;;7.40;6.80;;;36.10;65.00;;;;;;5055339;28;20406;-66
2021/08/15 10:52:35;;;;;;;7.53;6.93;;;35.70;66.00;;;;;;5055640;28;20481;-61
2021/08/15 10:55:03;;;;;;;7.10;6.47;;;35.30;66.30;;;;;;5055710;28;20477;-66
2021/08/15 10:57:45;;;;;;;10.10;6.80;;;35.10;67.90;;;;;;5055212;28;20734;-61
2021/08/15 11:00:29;;;;;;;9.10;7.33;;;34.80;69.10;;;;;;5063949;28;20427;-62
2021/08/15 11:02:59;;;;;;;7.20;6.60;;;35.10;69.10;;;;;;5075395;28;20386;-65
2021/08/15 11:05:34;;;;;;;7.70;7.00;;;35.00;69.30;;;;;;5075250;28;20500;-63
2021/08/15 11:08:00;;;;;;;6.90;6.40;;;34.90;70.40;;;;;;5074997;28;20385;-61
2021/08/15 11:10:46;;;;;;;11.67;7.43;;;34.50;70.00;;;;;;5075299;28;20430;-61
2021/08/15 11:13:22;;;;;;;7.57;6.87;;;34.10;70.40;;;;;;5075433;28;20173;-62
2021/08/15 11:15:47;;;;;;;8.10;7.13;;;33.60;71.20;;;;;;5059177;28;20412;-65
2021/08/15 11:18:15;;;;;;;6.63;6.10;;;33.30;72.70;;;;;;5053287;28;20431;-66
2021/08/15 11:20:51;;;;;;;10.17;6.67;;;33.00;73.90;;;;;;5055014;28;20174;-65
2021/08/15 11:23:18;;;;;;;7.63;6.93;;;32.60;75.20;;;;;;5055117;28;20390;-62
2021/08/15 11:25:45;;;;;;;6.80;6.10;;;32.10;75.70;;;;;;5054999;28;20436;-61
2021/08/15 11:28:11;;;;;;;6.83;6.20;;;32.00;77.60;;;;;;5058161;28;20435;-66
2021/08/15 11:30:38;;;;;;;7.23;6.53;;;31.80;79.10;;;;;;5075212;28;20366;-62
2021/08/15 11:33:08;;;;;;;8.00;6.47;;;31.70;80.10;;;;;;5074658;28;20416;-62
2021/08/15 11:35:36;;;;;;;7.73;6.93;;;31.70;82.60;;;;;;5074940;28;20387;-66
2021/08/15 11:38:02;;;;;;;7.60;6.83;;;31.60;84.10;;;;;;5074360;28;20378;-66
2021/08/15 11:40:31;;;;;;;7.17;6.47;;;31.50;82.40;;;;;;5074580;28;20404;-61
2021/08/15 11:42:58;;;;;;;7.80;7.10;;;31.40;81.20;;;;;;5074390;28;20434;-65
2021/08/15 11:45:31;;;;;;;9.93;6.80;;;31.20;81.20;;;;;;5074726;28;20855;-63
2021/08/15 11:48:04;;;;;;;7.50;6.67;;;31.10;80.10;;;;;;5074073;28;20442;-64
2021/08/15 11:50:32;;;;;;;7.33;6.63;;;31.00;80.50;;;;;;5074560;28;20378;-62
2021/08/15 11:52:58;;;;;;;7.80;7.10;;;30.80;81.00;;;;;;5057955;28;20406;-62
2021/08/15 11:55:26;;;;;;;8.00;7.30;;;30.50;84.50;;;;;;5053887;28;20920;-64
2021/08/15 11:57:58;;;;;;;7.83;7.10;;;30.30;85.40;;;;;;5054085;28;20204;-64
2021/08/15 12:00:35;;;;;;;7.23;6.63;;;30.10;86.90;;;;;;5054295;28;20941;-63
2021/08/15 12:03:29;;;;;;;7.70;6.90;;;29.90;87.50;;;;;;5054202;28;20780;-65
2021/08/15 12:05:57;;;;;;;9.67;7.77;;;29.80;88.20;;;;;;5055060;28;20463;-65
2021/08/15 12:08:44;;;;;;;8.60;7.27;;;29.60;90.10;;;;;;5073385;28;20539;-65
2021/08/15 12:11:23;;;;;;;8.93;8.10;;;29.40;91.00;;;;;;5073897;28;20415;-64
2021/08/15 12:13:52;;;;;;;9.03;7.30;;;29.10;91.70;;;;;;5073788;28;20407;-63
2021/08/15 12:16:22;;;;;;;9.50;7.80;;;28.90;91.90;;;;;;5073780;28;20432;-64
2021/08/15 12:18:47;;;;;;;10.43;7.30;;;28.80;92.30;;;;;;5073495;28;20475;-66
2021/08/15 12:21:16;;;;;;;8.43;7.63;;;28.70;92.70;;;;;;5067691;28;20426;-63
2021/08/15 12:23:59;;;;;;;9.43;8.53;;;28.60;93.60;;;;;;5053975;28;20179;-64
2021/08/15 12:26:27;;;;;;;8.87;7.53;;;28.50;94.00;;;;;;5053740;28;20609;-64
2021/08/15 12:29:03;;;;;;;8.10;7.30;;;28.50;94.50;;;;;;5053623;28;20488;-63
2021/08/15 12:31:30;;;;;;;8.83;8.03;;;28.50;94.40;;;;;;5053967;28;20452;-63
2021/08/15 12:34:16;;;;;;;8.03;7.30;;;28.60;94.40;;;;;;5053732;28;20523;-64
2021/08/15 12:36:53;;;;;;;8.00;7.07;;;28.80;94.30;;;;;;5073117;28;20496;-60
2021/08/15 12:39:27;;;;;;;8.20;7.40;;;29.00;94.00;;;;;;5073737;28;20426;-66
2021/08/15 12:42:04;;;;;;;8.70;7.37;;;29.10;94.00;;;;;;5074174;28;20399;-63
2021/08/15 12:44:51;;;;;;;8.07;7.33;;;29.30;93.50;;;;;;5073815;28;20393;-65
2021/08/15 12:47:25;;;;;;;8.37;7.57;;;29.30;93.30;;;;;;5073255;28;20435;-65